createdAt,value
2023-02-11T00:00:41.109Z,18.98
2023-02-11T00:01:43.054Z,17.20
2023-02-11T00:02:47.910Z,19.02
2023-02-11T00:03:51.308Z,16.60
2023-02-11T00:04:53.300Z,18.90
2023-02-11T00:06:00.576Z,17.83
2023-02-11T00:07:02.804Z,17.27
2023-02-11T00:08:06.059Z,18.80
2023-02-11T00:09:08.545Z,16.83
2023-02-11T00:10:11.538Z,16.92
2023-02-11T00:11:14.960Z,18.73
2023-02-11T00:12:19.601Z,18.58
2023-02-11T00:13:22.003Z,16.65
2023-02-11T00:14:24.973Z,18.50
2023-02-11T00:15:28.278Z,18.02
2023-02-11T00:16:32.948Z,18.60
2023-02-11T00:17:34.987Z,19.02
2023-02-11T00:18:38.118Z,17.35
2023-02-11T00:19:40.166Z,18.85
2023-02-11T00:20:44.076Z,17.73
2023-02-11T00:21:46.034Z,18.02
2023-02-11T00:22:48.888Z,17.10
2023-02-11T00:23:50.947Z,17.85
2023-02-11T00:24:54.113Z,17.65
2023-02-11T00:25:56.002Z,16.98
2023-02-11T00:26:58.952Z,18.42
2023-02-11T00:28:01.026Z,16.80
2023-02-11T00:29:05.207Z,17.08
2023-02-11T00:30:08.370Z,17.73
2023-02-11T00:31:13.318Z,16.05
2023-02-11T00:32:16.344Z,18.98
2023-02-11T00:33:18.309Z,17.05
2023-02-11T00:34:21.304Z,18.33
2023-02-11T00:35:23.547Z,17.15
2023-02-11T00:36:28.829Z,17.95
2023-02-11T00:37:32.283Z,17.15
2023-02-11T00:38:35.385Z,16.27
2023-02-11T00:39:37.284Z,19.58
2023-02-11T00:40:40.358Z,16.48
2023-02-11T00:41:42.245Z,17.38
2023-02-11T00:42:45.093Z,16.77
2023-02-11T00:43:47.293Z,18.25
2023-02-11T00:44:51.392Z,16.58
2023-02-11T00:45:53.593Z,17.65
2023-02-11T00:46:58.011Z,16.60
2023-02-11T00:47:59.935Z,16.55
2023-02-11T00:49:04.412Z,18.85
2023-02-11T00:50:07.608Z,17.73
2023-02-11T00:51:10.954Z,17.80
2023-02-11T00:52:12.918Z,18.88
2023-02-11T00:53:15.920Z,16.95
2023-02-11T00:54:17.832Z,17.45
2023-02-11T00:55:20.799Z,15.43
2023-02-11T00:56:22.978Z,17.08
2023-02-11T00:57:25.837Z,17.05
2023-02-11T00:58:27.896Z,17.50
2023-02-11T00:59:30.942Z,16.98
2023-02-11T01:00:32.948Z,16.35
2023-02-11T01:01:35.971Z,17.58
2023-02-11T01:02:39.346Z,16.73
2023-02-11T01:03:42.534Z,15.82
2023-02-11T01:04:44.670Z,17.25
2023-02-11T01:05:47.811Z,16.08
2023-02-11T01:06:49.780Z,17.75
2023-02-11T01:07:52.694Z,16.58
2023-02-11T01:08:54.544Z,15.90
2023-02-11T01:09:57.905Z,16.45
2023-02-11T01:11:01.691Z,14.90
2023-02-11T01:12:04.897Z,16.63
2023-02-11T01:13:07.586Z,16.80
2023-02-11T01:14:10.986Z,15.45
2023-02-11T01:15:14.746Z,14.52
2023-02-11T01:16:19.201Z,15.90
2023-02-11T01:17:21.178Z,15.52
2023-02-11T01:18:28.315Z,14.00
2023-02-11T01:19:30.291Z,17.23
2023-02-11T01:20:33.328Z,16.60
2023-02-11T01:21:35.305Z,16.05
2023-02-11T01:22:39.620Z,18.10
2023-02-11T01:23:41.606Z,16.17
2023-02-11T01:24:44.592Z,15.10
2023-02-11T01:25:46.595Z,15.75
2023-02-11T01:26:50.730Z,16.60
2023-02-11T01:27:52.697Z,15.55
2023-02-11T01:28:55.648Z,13.98
2023-02-11T01:29:57.625Z,16.50
2023-02-11T01:31:02.079Z,15.45
2023-02-11T01:32:05.395Z,13.73
2023-02-11T01:33:07.389Z,15.93
2023-02-11T01:34:11.731Z,14.50
2023-02-11T01:35:13.679Z,14.98
2023-02-11T01:36:16.597Z,16.42
2023-02-11T01:37:18.522Z,14.95
2023-02-11T01:38:23.443Z,14.98
2023-02-11T01:39:27.869Z,16.60
2023-02-11T01:40:30.774Z,16.40
2023-02-11T01:41:32.678Z,14.50
2023-02-11T01:42:35.741Z,15.98
2023-02-11T01:43:39.590Z,16.00
2023-02-11T01:44:42.730Z,14.15
2023-02-11T01:45:58.982Z,14.10
2023-02-11T01:47:04.711Z,15.88
2023-02-11T01:48:07.454Z,15.30
2023-02-11T01:49:17.376Z,14.70
2023-02-11T01:50:19.365Z,16.10
2023-02-11T01:51:26.417Z,14.27
2023-02-11T01:52:32.165Z,15.90
2023-02-11T01:53:53.551Z,15.52
2023-02-11T01:55:18.346Z,14.13
2023-02-11T01:56:39.543Z,15.55
2023-02-11T01:57:46.535Z,14.57
2023-02-11T01:58:51.617Z,14.10
2023-02-11T02:00:11.915Z,14.00
2023-02-11T02:01:23.120Z,14.63
2023-02-11T02:02:31.283Z,16.65
2023-02-11T02:03:36.339Z,14.82
2023-02-11T02:04:48.138Z,14.70
2023-02-11T02:05:57.302Z,15.52
2023-02-11T02:07:05.287Z,15.30
2023-02-11T02:08:12.638Z,15.20
2023-02-11T02:09:20.572Z,15.70
2023-02-11T02:10:27.635Z,13.07
2023-02-11T02:11:30.077Z,13.77
2023-02-11T02:12:33.093Z,13.95
2023-02-11T02:13:35.496Z,15.20
2023-02-11T02:14:40.451Z,14.93
2023-02-11T02:15:49.773Z,15.13
2023-02-11T02:16:53.413Z,15.40
2023-02-11T02:18:02.531Z,13.10
2023-02-11T02:19:36.890Z,12.82
2023-02-11T02:21:01.664Z,13.27
2023-02-11T02:22:33.019Z,13.25
2023-02-11T02:24:06.844Z,14.32
2023-02-11T02:25:28.262Z,13.10
2023-02-11T02:26:51.782Z,14.07
2023-02-11T02:28:01.025Z,13.40
2023-02-11T02:29:26.275Z,12.95
2023-02-11T02:31:00.034Z,13.23
2023-02-11T02:32:29.783Z,13.73
2023-02-11T02:33:45.792Z,12.70
2023-02-11T02:34:54.104Z,13.10
2023-02-11T02:36:07.766Z,12.88
2023-02-11T02:37:18.240Z,13.80
2023-02-11T02:38:27.719Z,12.77
2023-02-11T02:39:33.886Z,12.75
2023-02-11T02:40:42.372Z,13.70
2023-02-11T02:41:46.392Z,13.85
2023-02-11T02:42:50.766Z,14.15
2023-02-11T02:43:52.992Z,12.15
2023-02-11T02:44:57.334Z,12.57
2023-02-11T02:46:11.069Z,13.93
2023-02-11T02:47:15.341Z,12.23
2023-02-11T02:48:26.767Z,12.48
2023-02-11T02:49:29.672Z,13.27
2023-02-11T02:50:34.956Z,12.32
2023-02-11T02:51:56.868Z,12.55
2023-02-11T02:53:11.085Z,11.50
2023-02-11T02:54:52.596Z,11.85
2023-02-11T02:56:07.597Z,12.43
2023-02-11T02:57:29.970Z,11.88
2023-02-11T02:58:54.375Z,11.90
2023-02-11T03:00:09.757Z,11.88
2023-02-11T03:01:25.608Z,11.13
2023-02-11T03:02:34.741Z,12.13
2023-02-11T03:03:43.333Z,11.90
2023-02-11T03:04:56.568Z,11.68
2023-02-11T03:06:05.125Z,12.43
2023-02-11T03:07:18.622Z,12.77
2023-02-11T03:08:27.197Z,13.00
2023-02-11T03:09:35.055Z,12.82
2023-02-11T03:10:41.540Z,12.75
2023-02-11T03:11:44.553Z,12.40
2023-02-11T03:12:48.516Z,11.05
2023-02-11T03:13:53.305Z,12.95
2023-02-11T03:14:55.255Z,12.05
2023-02-11T03:16:03.215Z,12.75
2023-02-11T03:17:07.254Z,12.45
2023-02-11T03:18:16.558Z,11.85
2023-02-11T03:19:22.044Z,11.85
2023-02-11T03:20:25.002Z,11.35
2023-02-11T03:21:28.490Z,11.95
2023-02-11T03:22:36.176Z,10.88
2023-02-11T03:23:41.277Z,12.52
2023-02-11T03:24:45.562Z,13.45
2023-02-11T03:25:52.139Z,12.80
2023-02-11T03:26:57.601Z,11.23
2023-02-11T03:28:08.285Z,11.02
2023-02-11T03:29:18.927Z,11.77
2023-02-11T03:30:28.604Z,11.25
2023-02-11T03:31:38.119Z,11.82
2023-02-11T03:32:46.323Z,11.75
2023-02-11T03:33:59.699Z,10.77
2023-02-11T03:35:08.263Z,10.15
2023-02-11T03:36:15.881Z,10.55
2023-02-11T03:37:23.011Z,10.23
2023-02-11T03:38:31.636Z,11.07
2023-02-11T03:39:37.855Z,12.85
2023-02-11T03:40:43.629Z,11.77
2023-02-11T03:41:49.827Z,11.45
2023-02-11T03:42:57.213Z,11.57
2023-02-11T03:44:03.185Z,10.85
2023-02-11T03:45:09.316Z,10.50
2023-02-11T03:46:15.237Z,10.15
2023-02-11T03:47:22.714Z,10.93
2023-02-11T03:48:29.115Z,10.77
2023-02-11T03:49:34.612Z,10.93
2023-02-11T03:50:39.020Z,10.93
2023-02-11T03:51:42.744Z,10.45
2023-02-11T03:52:47.046Z,11.40
2023-02-11T03:53:53.825Z,11.60
2023-02-11T03:55:00.277Z,10.48
2023-02-11T03:56:07.344Z,10.32
2023-02-11T03:57:09.507Z,10.85
2023-02-11T03:58:12.576Z,10.52
2023-02-11T03:59:14.549Z,10.27
2023-02-11T04:00:17.685Z,10.40
2023-02-11T04:01:19.819Z,11.27
2023-02-11T04:02:24.392Z,9.10
2023-02-11T04:03:26.364Z,10.38
2023-02-11T04:04:29.323Z,10.65
2023-02-11T04:05:32.831Z,10.63
2023-02-11T04:06:35.748Z,9.70
2023-02-11T04:07:37.667Z,9.30
2023-02-11T04:08:40.648Z,10.50
2023-02-11T04:09:42.733Z,9.32
2023-02-11T04:10:45.673Z,8.85
2023-02-11T04:11:47.622Z,9.00
2023-02-11T04:12:50.561Z,9.85
2023-02-11T04:13:52.482Z,9.98
2023-02-11T04:14:55.374Z,10.45
2023-02-11T04:15:57.311Z,8.63
2023-02-11T04:17:00.219Z,9.40
2023-02-11T04:18:03.397Z,10.70
2023-02-11T04:19:06.317Z,9.63
2023-02-11T04:20:09.356Z,8.95
2023-02-11T04:21:13.565Z,9.05
2023-02-11T04:22:15.474Z,9.05
2023-02-11T04:23:18.461Z,8.85
2023-02-11T04:24:21.834Z,10.43
2023-02-11T04:25:25.919Z,9.32
2023-02-11T04:26:27.924Z,10.23
2023-02-11T04:27:30.933Z,8.70
2023-02-11T04:28:33.017Z,9.55
2023-02-11T04:29:36.124Z,8.82
2023-02-11T04:30:38.137Z,9.85
2023-02-11T04:31:41.276Z,9.90
2023-02-11T04:32:43.377Z,8.98
2023-02-11T04:33:46.288Z,9.20
2023-02-11T04:34:48.448Z,10.65
2023-02-11T04:35:51.564Z,9.50
2023-02-11T04:36:55.892Z,8.98
2023-02-11T04:37:57.940Z,8.10
2023-02-11T04:39:00.780Z,9.50
2023-02-11T04:40:02.985Z,8.30
2023-02-11T04:41:06.351Z,10.38
2023-02-11T04:42:08.276Z,8.65
2023-02-11T04:43:11.278Z,8.48
2023-02-11T04:44:13.185Z,8.48
2023-02-11T04:45:16.252Z,9.57
2023-02-11T04:46:18.193Z,10.20
2023-02-11T04:47:21.136Z,8.30
2023-02-11T04:48:23.080Z,9.63
2023-02-11T04:49:26.321Z,10.05
2023-02-11T04:50:28.254Z,10.02
2023-02-11T04:51:31.087Z,9.40
2023-02-11T04:52:34.527Z,8.23
2023-02-11T04:53:37.462Z,8.23
2023-02-11T04:54:39.632Z,8.45
2023-02-11T04:55:42.676Z,9.05
2023-02-11T04:56:44.639Z,8.15
2023-02-11T04:57:47.814Z,8.20
2023-02-11T04:58:50.369Z,8.52
2023-02-11T04:59:53.232Z,9.50
2023-02-11T05:00:55.201Z,9.18
2023-02-11T05:01:58.135Z,9.00
2023-02-11T05:03:00.030Z,9.32
2023-02-11T05:04:03.194Z,9.07
2023-02-11T05:05:06.111Z,8.95
2023-02-11T05:06:09.310Z,9.50
2023-02-11T05:07:11.288Z,7.95
2023-02-11T05:08:15.530Z,8.63
2023-02-11T05:09:17.764Z,8.90
2023-02-11T05:10:20.577Z,8.57
2023-02-11T05:11:25.032Z,9.23
2023-02-11T05:12:27.970Z,8.75
2023-02-11T05:13:30.477Z,9.80
2023-02-11T05:14:33.715Z,9.20
2023-02-11T05:15:35.581Z,9.57
2023-02-11T05:16:38.523Z,8.63
2023-02-11T05:17:42.206Z,9.48
2023-02-11T05:18:46.326Z,8.35
2023-02-11T05:19:48.242Z,7.85
2023-02-11T05:20:51.234Z,9.75
2023-02-11T05:22:02.702Z,8.52
2023-02-11T05:23:06.584Z,9.18
2023-02-11T05:24:09.923Z,8.63
2023-02-11T05:25:12.860Z,7.80
2023-02-11T05:26:15.225Z,8.02
2023-02-11T05:27:18.101Z,7.90
2023-02-11T05:28:20.084Z,8.70
2023-02-11T05:29:23.564Z,8.98
2023-02-11T05:30:25.668Z,9.30
2023-02-11T05:31:28.557Z,9.88
2023-02-11T05:32:30.422Z,7.85
2023-02-11T05:33:33.543Z,7.95
2023-02-11T05:34:35.580Z,9.85
2023-02-11T05:35:38.443Z,8.50
2023-02-11T05:36:40.565Z,10.35
2023-02-11T05:37:43.735Z,8.20
2023-02-11T05:38:45.621Z,9.50
2023-02-11T05:39:50.036Z,8.30
2023-02-11T05:40:51.900Z,9.52
2023-02-11T05:41:54.933Z,9.13
2023-02-11T05:42:56.852Z,10.43
2023-02-11T05:43:59.722Z,8.70
2023-02-11T05:45:01.666Z,8.68
2023-02-11T05:46:05.216Z,8.18
2023-02-11T05:47:09.003Z,8.82
2023-02-11T05:48:11.878Z,8.80
2023-02-11T05:49:13.754Z,7.97
2023-02-11T05:50:16.652Z,8.55
2023-02-11T05:51:18.612Z,8.90
2023-02-11T05:52:21.559Z,9.13
2023-02-11T05:53:23.644Z,9.57
2023-02-11T05:54:26.464Z,8.18
2023-02-11T05:55:29.750Z,8.25
2023-02-11T05:56:32.592Z,8.32
2023-02-11T05:57:34.632Z,9.25
2023-02-11T05:58:38.692Z,8.90
2023-02-11T05:59:40.982Z,8.20
2023-02-11T06:00:43.978Z,8.07
2023-02-11T06:01:46.054Z,8.45
2023-02-11T06:02:49.052Z,8.48
2023-02-11T06:03:51.358Z,8.95
2023-02-11T06:04:54.293Z,7.50
2023-02-11T06:05:56.194Z,7.63
2023-02-11T06:06:59.092Z,7.50
2023-02-11T06:08:01.140Z,8.05
2023-02-11T06:09:04.244Z,8.25
2023-02-11T06:10:07.381Z,6.97
2023-02-11T06:11:11.654Z,6.68
2023-02-11T06:12:13.787Z,8.95
2023-02-11T06:13:18.642Z,7.40
2023-02-11T06:14:22.094Z,6.57
2023-02-11T06:15:24.961Z,7.20
2023-02-11T06:16:26.929Z,7.95
2023-02-11T06:17:31.728Z,8.60
2023-02-11T06:18:33.699Z,7.20
2023-02-11T06:19:36.769Z,7.65
2023-02-11T06:20:40.823Z,8.23
2023-02-11T06:21:44.610Z,6.25
2023-02-11T06:22:46.690Z,7.95
2023-02-11T06:23:50.025Z,7.35
2023-02-11T06:25:01.225Z,6.60
2023-02-11T06:26:06.125Z,7.85
2023-02-11T06:27:10.447Z,8.07
2023-02-11T06:28:12.367Z,8.23
2023-02-11T06:29:15.298Z,6.97
2023-02-11T06:30:17.334Z,8.00
2023-02-11T06:31:20.347Z,6.85
2023-02-11T06:32:42.177Z,7.78
2023-02-11T06:33:45.403Z,8.25
2023-02-11T06:34:47.454Z,8.73
2023-02-11T06:35:50.717Z,7.25
2023-02-11T06:36:52.804Z,6.18
2023-02-11T06:37:55.705Z,6.95
2023-02-11T06:38:57.623Z,7.68
2023-02-11T06:40:00.572Z,7.40
2023-02-11T06:41:02.634Z,7.18
2023-02-11T06:42:07.903Z,7.22
2023-02-11T06:43:11.341Z,6.20
2023-02-11T06:44:14.332Z,6.78
2023-02-11T06:45:16.489Z,6.25
2023-02-11T06:46:19.481Z,6.80
2023-02-11T06:47:21.373Z,7.50
2023-02-11T06:48:25.050Z,6.10
2023-02-11T06:49:27.074Z,7.18
2023-02-11T06:50:29.946Z,7.28
2023-02-11T06:51:31.854Z,6.95
2023-02-11T06:52:35.254Z,7.20
2023-02-11T06:53:39.287Z,7.70
2023-02-11T06:54:42.198Z,7.03
2023-02-11T06:55:44.058Z,6.63
2023-02-11T06:56:46.952Z,6.97
2023-02-11T06:57:48.985Z,7.25
2023-02-11T06:58:55.833Z,6.97
2023-02-11T06:59:58.000Z,6.20
2023-02-11T07:01:01.941Z,7.28
2023-02-11T07:02:04.004Z,7.28
2023-02-11T07:03:06.967Z,7.60
2023-02-11T07:04:10.057Z,6.65
2023-02-11T07:05:12.032Z,7.97
2023-02-11T07:06:17.561Z,7.15
2023-02-11T07:07:19.568Z,6.72
2023-02-11T07:08:22.402Z,7.78
2023-02-11T07:09:24.344Z,7.28
2023-02-11T07:10:27.240Z,7.45
2023-02-11T07:11:29.870Z,7.50
2023-02-11T07:12:32.889Z,7.93
2023-02-11T07:13:34.781Z,6.95
2023-02-11T07:14:39.236Z,7.60
2023-02-11T07:15:41.155Z,8.30
2023-02-11T07:16:44.200Z,6.55
2023-02-11T07:17:46.152Z,7.57
2023-02-11T07:18:49.593Z,6.55
2023-02-11T07:19:51.482Z,7.00
2023-02-11T07:20:54.584Z,6.47
2023-02-11T07:21:57.626Z,6.50
2023-02-11T07:23:00.158Z,8.52
2023-02-11T07:24:03.376Z,6.68
2023-02-11T07:25:06.189Z,7.05
2023-02-11T07:26:11.057Z,6.63
2023-02-11T07:27:13.175Z,6.22
2023-02-11T07:28:16.150Z,6.03
2023-02-11T07:29:18.059Z,6.45
2023-02-11T07:30:22.901Z,7.15
2023-02-11T07:31:26.787Z,7.07
2023-02-11T07:32:29.878Z,6.47
2023-02-11T07:33:31.781Z,6.68
2023-02-11T07:34:34.882Z,5.38
2023-02-11T07:35:36.850Z,5.65
2023-02-11T07:36:39.753Z,6.05
2023-02-11T07:37:42.615Z,6.78
2023-02-11T07:38:46.128Z,6.93
2023-02-11T07:39:48.048Z,6.13
2023-02-11T07:40:50.941Z,6.07
2023-02-11T07:41:52.887Z,6.10
2023-02-11T07:42:55.720Z,5.68
2023-02-11T07:43:57.579Z,6.10
2023-02-11T07:45:00.592Z,6.53
2023-02-11T07:46:06.080Z,5.93
2023-02-11T07:47:09.006Z,6.45
2023-02-11T07:48:11.256Z,6.57
2023-02-11T07:49:14.276Z,5.90
2023-02-11T07:50:17.195Z,6.60
2023-02-11T07:51:22.230Z,7.03
2023-02-11T07:52:24.353Z,6.70
2023-02-11T07:53:27.245Z,5.85
2023-02-11T07:54:29.255Z,5.70
2023-02-11T07:55:32.179Z,5.30
2023-02-11T07:56:34.592Z,5.45
2023-02-11T07:57:37.501Z,7.32
2023-02-11T07:58:42.086Z,6.80
2023-02-11T07:59:44.990Z,5.88
2023-02-11T08:00:46.931Z,6.65
2023-02-11T08:01:51.665Z,6.68
2023-02-11T08:02:54.639Z,6.70
2023-02-11T08:03:57.742Z,6.47
2023-02-11T08:05:00.701Z,5.68
2023-02-11T08:06:04.144Z,6.38
2023-02-11T08:07:07.188Z,6.00
2023-02-11T08:08:10.046Z,5.75
2023-02-11T08:09:15.789Z,6.93
2023-02-11T08:10:18.940Z,5.25
2023-02-11T08:11:23.859Z,6.07
2023-02-11T08:12:26.862Z,6.07
2023-02-11T08:13:28.753Z,5.80
2023-02-11T08:14:32.752Z,5.97
2023-02-11T08:15:34.717Z,6.68
2023-02-11T08:16:39.882Z,5.97
2023-02-11T08:17:43.546Z,6.20
2023-02-11T08:18:46.479Z,6.80
2023-02-11T08:19:49.331Z,5.75
2023-02-11T08:20:51.612Z,5.95
2023-02-11T08:21:56.974Z,5.85
2023-02-11T08:22:59.169Z,5.15
2023-02-11T08:24:03.126Z,5.95
2023-02-11T08:25:05.858Z,4.95
2023-02-11T08:26:11.116Z,5.40
2023-02-11T08:27:14.046Z,5.28
2023-02-11T08:28:15.939Z,6.00
2023-02-11T08:29:18.893Z,5.05
2023-02-11T08:30:20.861Z,5.82
2023-02-11T08:31:26.401Z,5.00
2023-02-11T08:32:28.399Z,5.85
2023-02-11T08:33:32.636Z,6.03
2023-02-11T08:34:34.625Z,5.75
2023-02-11T08:35:39.862Z,5.65
2023-02-11T08:36:43.433Z,5.38
2023-02-11T08:37:46.340Z,5.53
2023-02-11T08:38:48.392Z,4.97
2023-02-11T08:39:51.302Z,5.18
2023-02-11T08:40:53.250Z,4.90
2023-02-11T08:41:56.704Z,6.05
2023-02-11T08:42:58.640Z,6.25
2023-02-11T08:44:01.969Z,5.60
2023-02-11T08:45:05.767Z,6.50
2023-02-11T08:46:08.736Z,6.88
2023-02-11T08:47:11.663Z,6.72
2023-02-11T08:48:13.576Z,5.90
2023-02-11T08:49:18.047Z,6.28
2023-02-11T08:50:20.194Z,5.50
2023-02-11T08:51:25.693Z,5.50
2023-02-11T08:52:28.655Z,6.55
2023-02-11T08:53:30.586Z,6.25
2023-02-11T08:54:33.924Z,5.97
2023-02-11T08:55:35.990Z,6.75
2023-02-11T08:56:39.266Z,6.07
2023-02-11T08:57:42.237Z,6.35
2023-02-11T08:58:44.528Z,7.93
2023-02-11T08:59:47.730Z,8.50
2023-02-11T09:00:50.229Z,8.02
2023-02-11T09:01:53.495Z,7.53
2023-02-11T09:02:55.686Z,7.50
2023-02-11T09:03:59.986Z,6.88
2023-02-11T09:05:03.316Z,6.53
2023-02-11T09:06:07.539Z,6.90
2023-02-11T09:07:10.474Z,7.47
2023-02-11T09:08:12.800Z,7.55
2023-02-11T09:09:17.425Z,6.85
2023-02-11T09:10:19.507Z,7.47
2023-02-11T09:11:27.367Z,7.68
2023-02-11T09:12:30.265Z,7.70
2023-02-11T09:13:33.272Z,7.75
2023-02-11T09:14:36.380Z,8.82
2023-02-11T09:15:38.644Z,7.95
2023-02-11T09:16:41.516Z,8.15
2023-02-11T09:17:44.466Z,9.50
2023-02-11T09:18:46.805Z,8.40
2023-02-11T09:19:49.707Z,7.78
2023-02-11T09:20:53.173Z,8.65
2023-02-11T09:21:56.318Z,8.60
2023-02-11T09:22:59.315Z,9.18
2023-02-11T09:24:03.761Z,8.52
2023-02-11T09:25:06.453Z,8.27
2023-02-11T09:26:11.356Z,8.82
2023-02-11T09:27:14.309Z,9.60
2023-02-11T09:28:17.301Z,7.38
2023-02-11T09:29:20.180Z,8.23
2023-02-11T09:30:22.290Z,9.20
2023-02-11T09:31:28.127Z,8.38
2023-02-11T09:32:30.208Z,8.43
2023-02-11T09:33:33.660Z,7.70
2023-02-11T09:34:36.536Z,8.18
2023-02-11T09:35:38.606Z,9.70
2023-02-11T09:36:43.218Z,9.75
2023-02-11T09:37:45.207Z,9.20
2023-02-11T09:38:49.648Z,9.20
2023-02-11T09:39:52.579Z,8.30
2023-02-11T09:40:54.768Z,15.48
2023-02-11T09:42:38.896Z,11.60
2023-02-11T09:43:47.599Z,9.07
2023-02-11T09:44:50.994Z,11.68
2023-02-11T09:45:56.481Z,11.07
2023-02-11T09:47:00.665Z,12.60
2023-02-11T09:48:08.408Z,10.05
2023-02-11T09:49:20.032Z,11.98
2023-02-11T09:50:27.628Z,10.73
2023-02-11T09:51:47.218Z,12.93
2023-02-11T09:52:55.258Z,9.82
2023-02-11T09:54:05.864Z,12.38
2023-02-11T09:55:19.710Z,10.15
2023-02-11T09:56:23.585Z,11.25
2023-02-11T09:57:29.950Z,10.98
2023-02-11T09:58:35.382Z,10.25
2023-02-11T09:59:37.311Z,13.05
2023-02-11T10:00:45.968Z,11.10
2023-02-11T10:01:54.335Z,11.52
2023-02-11T10:03:35.600Z,10.80
2023-02-11T10:04:59.486Z,9.75
2023-02-11T10:06:22.980Z,10.13
2023-02-11T10:07:36.355Z,9.90
2023-02-11T10:08:48.580Z,11.02
2023-02-11T10:10:04.419Z,10.15
2023-02-11T10:11:25.995Z,10.05
2023-02-11T10:12:46.533Z,10.98
2023-02-11T10:14:00.204Z,10.32
2023-02-11T10:15:16.753Z,10.05
2023-02-11T10:16:35.019Z,10.00
2023-02-11T10:17:49.161Z,11.18
2023-02-11T10:19:11.231Z,11.07
2023-02-11T10:20:26.521Z,12.00
2023-02-11T10:21:36.705Z,11.93
2023-02-11T10:22:44.189Z,11.27
2023-02-11T10:23:56.053Z,11.15
2023-02-11T10:25:00.905Z,10.82
2023-02-11T10:26:04.706Z,10.82
2023-02-11T10:27:17.512Z,9.45
2023-02-11T10:28:24.702Z,10.88
2023-02-11T10:29:35.535Z,12.27
2023-02-11T10:30:43.654Z,10.13
2023-02-11T10:31:48.701Z,12.15
2023-02-11T10:32:56.587Z,11.50
2023-02-11T10:34:03.141Z,11.07
2023-02-11T10:35:18.014Z,11.63
2023-02-11T10:36:23.851Z,11.05
2023-02-11T10:37:26.810Z,12.27
2023-02-11T10:38:33.058Z,12.35
2023-02-11T10:39:34.938Z,11.73
2023-02-11T10:40:37.905Z,12.18
2023-02-11T10:41:43.669Z,10.20
2023-02-11T10:42:49.929Z,11.70
2023-02-11T10:43:53.326Z,12.32
2023-02-11T10:45:01.184Z,10.57
2023-02-11T10:46:06.755Z,10.82
2023-02-11T10:47:15.725Z,11.80
2023-02-11T10:48:43.128Z,11.15
2023-02-11T10:49:46.982Z,9.68
2023-02-11T10:50:50.227Z,11.90
2023-02-11T10:52:24.530Z,11.45
2023-02-11T10:53:26.523Z,11.65
2023-02-11T10:54:30.790Z,14.65
2023-02-11T10:55:33.941Z,30.15
2023-02-11T10:56:38.569Z,16.90
2023-02-11T10:57:44.851Z,14.45
2023-02-11T10:58:56.621Z,12.38
2023-02-11T11:00:00.499Z,13.38
2023-02-11T11:01:08.019Z,13.20
2023-02-11T11:02:24.059Z,12.98
2023-02-11T11:03:29.916Z,11.68
2023-02-11T11:04:39.835Z,12.65
2023-02-11T11:05:50.822Z,12.48
2023-02-11T11:06:53.037Z,10.95
2023-02-11T11:07:58.180Z,11.38
2023-02-11T11:09:01.208Z,11.35
2023-02-11T11:10:08.615Z,11.50
2023-02-11T11:11:13.146Z,11.57
2023-02-11T11:12:49.113Z,12.20
2023-02-11T11:13:58.296Z,10.85
2023-02-11T11:15:01.918Z,12.65
2023-02-11T11:16:23.856Z,11.60
2023-02-11T11:17:29.036Z,11.00
2023-02-11T11:18:32.033Z,11.20
2023-02-11T11:19:33.888Z,11.00
2023-02-11T11:20:37.990Z,12.25
2023-02-11T11:21:42.868Z,12.77
2023-02-11T11:22:46.183Z,10.82
2023-02-11T11:23:55.561Z,10.18
2023-02-11T11:25:01.501Z,12.05
2023-02-11T11:26:08.636Z,10.32
2023-02-11T11:27:19.239Z,11.20
2023-02-11T11:28:25.239Z,10.90
2023-02-11T11:29:33.862Z,11.52
2023-02-11T11:30:42.776Z,11.23
2023-02-11T11:31:52.933Z,10.45
2023-02-11T11:32:56.577Z,10.43
2023-02-11T11:34:02.032Z,11.15
2023-02-11T11:35:10.067Z,11.30
2023-02-11T11:36:17.093Z,11.35
2023-02-11T11:37:24.567Z,10.95
2023-02-11T11:38:28.444Z,11.32
2023-02-11T11:39:33.827Z,12.18
2023-02-11T11:40:36.379Z,11.35
2023-02-11T11:41:51.441Z,10.85
2023-02-11T11:43:07.731Z,10.80
2023-02-11T11:44:24.644Z,11.88
2023-02-11T11:45:27.427Z,9.80
2023-02-11T11:46:34.030Z,10.52
2023-02-11T11:47:42.983Z,10.27
2023-02-11T11:48:49.756Z,10.50
2023-02-11T11:50:06.671Z,11.65
2023-02-11T11:51:12.698Z,10.10
2023-02-11T11:52:21.723Z,10.38
2023-02-11T11:53:30.437Z,10.50
2023-02-11T11:54:35.465Z,11.05
2023-02-11T11:55:43.280Z,9.13
2023-02-11T11:56:54.512Z,8.52
2023-02-11T11:57:57.657Z,9.50
2023-02-11T11:59:03.624Z,10.15
2023-02-11T12:00:14.674Z,9.55
2023-02-11T12:01:31.541Z,9.48
2023-02-11T12:02:55.048Z,8.45
2023-02-11T12:04:20.412Z,9.38
2023-02-11T12:05:26.871Z,8.73
2023-02-11T12:06:41.032Z,8.98
2023-02-11T12:07:55.270Z,8.50
2023-02-11T12:09:10.797Z,10.52
2023-02-11T12:10:28.831Z,9.73
2023-02-11T12:11:37.952Z,9.05
2023-02-11T12:12:53.465Z,9.40
2023-02-11T12:14:08.888Z,8.75
2023-02-11T12:15:26.274Z,8.55
2023-02-11T12:16:37.525Z,9.52
2023-02-11T12:17:57.415Z,10.15
2023-02-11T12:19:26.690Z,8.30
2023-02-11T12:20:39.561Z,9.52
2023-02-11T12:21:53.895Z,8.52
2023-02-11T12:23:15.565Z,9.18
2023-02-11T12:24:33.504Z,10.02
2023-02-11T12:25:44.065Z,8.70
2023-02-11T12:26:50.060Z,8.63
2023-02-11T12:28:04.194Z,9.85
2023-02-11T12:29:18.115Z,7.97
2023-02-11T12:30:34.528Z,8.70
2023-02-11T12:31:56.058Z,8.23
2023-02-11T12:33:08.946Z,8.82
2023-02-11T12:34:32.567Z,8.77
2023-02-11T12:35:48.328Z,8.00
2023-02-11T12:37:02.954Z,8.20
2023-02-11T12:38:25.139Z,8.02
2023-02-11T12:39:43.715Z,7.40
2023-02-11T12:40:53.452Z,9.00
2023-02-11T12:42:33.703Z,8.63
2023-02-11T12:43:39.418Z,8.20
2023-02-11T12:44:56.965Z,8.35
2023-02-11T12:46:31.693Z,7.63
2023-02-11T12:47:44.867Z,7.70
2023-02-11T12:49:07.023Z,8.25
2023-02-11T12:50:18.108Z,7.10
2023-02-11T12:51:31.987Z,8.50
2023-02-11T12:52:51.515Z,7.95
2023-02-11T12:54:10.999Z,8.00
2023-02-11T12:55:21.906Z,7.30
2023-02-11T12:56:28.305Z,6.32
2023-02-11T12:57:35.413Z,7.72
2023-02-11T12:58:45.318Z,8.43
2023-02-11T12:59:57.411Z,7.55
2023-02-11T13:01:06.146Z,7.88
2023-02-11T13:02:22.032Z,7.43
2023-02-11T13:03:29.684Z,7.80
2023-02-11T13:04:39.655Z,7.93
2023-02-11T13:05:49.368Z,8.20
2023-02-11T13:06:56.819Z,7.57
2023-02-11T13:08:05.837Z,7.88
2023-02-11T13:09:18.883Z,7.30
2023-02-11T13:10:27.008Z,7.90
2023-02-11T13:11:34.093Z,6.88
2023-02-11T13:12:56.728Z,8.02
2023-02-11T13:14:05.400Z,7.85
2023-02-11T13:15:14.159Z,7.55
2023-02-11T13:16:34.328Z,7.57
2023-02-11T13:17:43.601Z,7.05
2023-02-11T13:18:53.511Z,7.10
2023-02-11T13:20:03.592Z,8.50
2023-02-11T13:21:23.278Z,7.57
2023-02-11T13:22:32.172Z,7.72
2023-02-11T13:23:42.667Z,7.90
2023-02-11T13:24:52.768Z,7.18
2023-02-11T13:26:03.608Z,8.15
2023-02-11T13:27:17.221Z,8.30
2023-02-11T13:28:28.099Z,8.07
2023-02-11T13:29:41.173Z,7.50
2023-02-11T13:30:47.483Z,10.05
2023-02-11T13:31:57.706Z,8.55
2023-02-11T13:33:22.599Z,8.75
2023-02-11T13:34:27.696Z,9.40
2023-02-11T13:35:32.403Z,8.10
2023-02-11T13:36:35.296Z,8.23
2023-02-11T13:37:39.021Z,7.57
2023-02-11T13:38:42.188Z,9.40
2023-02-11T13:39:57.858Z,8.52
2023-02-11T13:41:02.750Z,8.60
2023-02-11T13:42:06.122Z,7.80
2023-02-11T13:43:21.983Z,7.80
2023-02-11T13:44:27.604Z,8.10
2023-02-11T13:45:36.402Z,8.70
2023-02-11T13:47:01.348Z,8.00
2023-02-11T13:48:08.235Z,8.40
2023-02-11T13:49:19.719Z,9.30
2023-02-11T13:50:25.052Z,8.70
2023-02-11T13:51:39.359Z,8.50
2023-02-11T13:52:42.739Z,9.70
2023-02-11T13:53:49.551Z,10.68
2023-02-11T13:54:57.327Z,8.75
2023-02-11T13:56:07.913Z,8.63
2023-02-11T13:57:26.393Z,8.45
2023-02-11T13:58:39.825Z,9.13
2023-02-11T13:59:47.388Z,9.23
2023-02-11T14:00:53.179Z,9.10
2023-02-11T14:02:23.523Z,10.40
2023-02-11T14:03:53.312Z,9.18
2023-02-11T14:05:39.510Z,9.55
2023-02-11T14:07:38.447Z,8.98
2023-02-11T14:09:01.512Z,8.80
2023-02-11T14:10:04.581Z,9.80
2023-02-11T14:11:23.681Z,9.35
2023-02-11T14:12:38.248Z,10.52
2023-02-11T14:14:18.647Z,9.80
2023-02-11T14:15:40.028Z,10.02
2023-02-11T14:17:22.658Z,10.48
2023-02-11T14:18:39.877Z,10.52
2023-02-11T14:19:45.229Z,9.20
2023-02-11T14:20:48.969Z,10.10
2023-02-11T14:21:51.168Z,9.55
2023-02-11T14:22:54.711Z,10.38
2023-02-11T14:24:38.101Z,10.52
2023-02-11T14:25:43.362Z,10.57
2023-02-11T14:26:50.131Z,11.88
2023-02-11T14:27:58.003Z,11.68
2023-02-11T14:29:06.976Z,11.27
2023-02-11T14:30:32.453Z,12.10
2023-02-11T14:31:40.281Z,12.27
2023-02-11T14:32:56.110Z,12.55
2023-02-11T14:34:21.039Z,11.07
2023-02-11T14:35:32.469Z,11.18
2023-02-11T14:37:00.092Z,12.27
2023-02-11T14:38:14.389Z,10.55